sensor_id;sensor_type;location;lat;lon;timestamp;P1;durP1;ratioP1;P2;durP2;ratioP2
7541;SDS011;3812;50.006;8.230;2023-02-24T00:01:13;25.10;;;13.17;;
7541;SDS011;3812;50.006;8.230;2023-02-24T00:03:49;22.60;;;12.90;;
7541;SDS011;3812;50.006;8.230;2023-02-24T00:06:17;25.63;;;13.13;;
7541;SDS011;3812;50.006;8.230;2023-02-24T00:08:44;24.13;;;13.27;;
7541;SDS011;3812;50.006;8.230;2023-02-24T00:11:13;26.53;;;14.17;;
7541;SDS011;3812;50.006;8.230;2023-02-24T00:13:42;26.13;;;13.80;;
7541;SDS011;3812;50.006;8.230;2023-02-24T00:16:12;26.33;;;13.60;;
7541;SDS011;3812;50.006;8.230;2023-02-24T00:18:41;29.67;;;14.67;;
7541;SDS011;3812;50.006;8.230;2023-02-24T00:21:09;28.50;;;13.73;;
7541;SDS011;3812;50.006;8.230;2023-02-24T00:23:38;27.53;;;13.77;;
7541;SDS011;3812;50.006;8.230;2023-02-24T00:26:06;27.63;;;13.87;;
7541;SDS011;3812;50.006;8.230;2023-02-24T00:28:35;27.60;;;14.60;;
7541;SDS011;3812;50.006;8.230;2023-02-24T00:31:05;29.00;;;15.23;;
7541;SDS011;3812;50.006;8.230;2023-02-24T00:33:34;30.53;;;16.77;;
7541;SDS011;3812;50.006;8.230;2023-02-24T00:36:04;31.80;;;15.83;;
7541;SDS011;3812;50.006;8.230;2023-02-24T00:38:35;29.77;;;14.83;;
7541;SDS011;3812;50.006;8.230;2023-02-24T00:41:09;33.27;;;15.93;;
7541;SDS011;3812;50.006;8.230;2023-02-24T00:43:38;30.53;;;14.93;;
7541;SDS011;3812;50.006;8.230;2023-02-24T00:46:12;28.50;;;16.03;;
7541;SDS011;3812;50.006;8.230;2023-02-24T00:48:42;30.43;;;16.70;;
7541;SDS011;3812;50.006;8.230;2023-02-24T00:51:10;29.87;;;15.30;;
7541;SDS011;3812;50.006;8.230;2023-02-24T00:53:38;34.67;;;15.83;;
7541;SDS011;3812;50.006;8.230;2023-02-24T00:56:06;32.67;;;15.53;;
7541;SDS011;3812;50.006;8.230;2023-02-24T00:58:36;33.20;;;16.17;;
7541;SDS011;3812;50.006;8.230;2023-02-24T01:01:10;33.97;;;16.70;;
7541;SDS011;3812;50.006;8.230;2023-02-24T01:03:39;31.57;;;16.93;;
7541;SDS011;3812;50.006;8.230;2023-02-24T01:06:07;34.83;;;16.73;;
7541;SDS011;3812;50.006;8.230;2023-02-24T01:08:36;35.77;;;17.03;;
7541;SDS011;3812;50.006;8.230;2023-02-24T01:11:04;29.57;;;15.33;;
7541;SDS011;3812;50.006;8.230;2023-02-24T01:13:49;33.23;;;16.27;;
7541;SDS011;3812;50.006;8.230;2023-02-24T01:16:18;29.90;;;15.07;;
7541;SDS011;3812;50.006;8.230;2023-02-24T01:18:45;35.80;;;17.13;;
7541;SDS011;3812;50.006;8.230;2023-02-24T01:21:13;32.97;;;16.27;;
7541;SDS011;3812;50.006;8.230;2023-02-24T01:23:40;31.13;;;17.07;;
7541;SDS011;3812;50.006;8.230;2023-02-24T01:26:07;31.60;;;16.20;;
7541;SDS011;3812;50.006;8.230;2023-02-24T01:28:35;34.03;;;16.50;;
7541;SDS011;3812;50.006;8.230;2023-02-24T01:31:02;33.10;;;16.33;;
7541;SDS011;3812;50.006;8.230;2023-02-24T01:33:32;33.40;;;15.67;;
7541;SDS011;3812;50.006;8.230;2023-02-24T01:36:08;30.33;;;15.37;;
7541;SDS011;3812;50.006;8.230;2023-02-24T01:38:37;32.53;;;15.87;;
7541;SDS011;3812;50.006;8.230;2023-02-24T01:41:06;30.63;;;16.03;;
7541;SDS011;3812;50.006;8.230;2023-02-24T01:46:23;29.93;;;15.90;;
7541;SDS011;3812;50.006;8.230;2023-02-24T01:48:54;32.73;;;15.57;;
7541;SDS011;3812;50.006;8.230;2023-02-24T01:51:24;27.73;;;15.17;;
7541;SDS011;3812;50.006;8.230;2023-02-24T01:53:55;32.60;;;16.10;;
7541;SDS011;3812;50.006;8.230;2023-02-24T01:56:22;28.00;;;14.63;;
7541;SDS011;3812;50.006;8.230;2023-02-24T01:58:49;30.93;;;15.27;;
7541;SDS011;3812;50.006;8.230;2023-02-24T02:01:17;32.03;;;15.60;;
7541;SDS011;3812;50.006;8.230;2023-02-24T02:03:44;28.53;;;13.90;;
7541;SDS011;3812;50.006;8.230;2023-02-24T02:06:14;30.80;;;14.97;;
7541;SDS011;3812;50.006;8.230;2023-02-24T02:08:42;30.00;;;15.23;;
7541;SDS011;3812;50.006;8.230;2023-02-24T02:11:11;31.57;;;15.93;;
7541;SDS011;3812;50.006;8.230;2023-02-24T02:13:39;31.40;;;15.87;;
7541;SDS011;3812;50.006;8.230;2023-02-24T02:16:14;28.37;;;14.87;;
7541;SDS011;3812;50.006;8.230;2023-02-24T02:19:04;30.23;;;15.43;;
7541;SDS011;3812;50.006;8.230;2023-02-24T02:21:55;28.97;;;14.53;;
7541;SDS011;3812;50.006;8.230;2023-02-24T02:24:34;31.80;;;15.53;;
7541;SDS011;3812;50.006;8.230;2023-02-24T02:27:18;28.23;;;14.77;;
7541;SDS011;3812;50.006;8.230;2023-02-24T02:30:17;26.90;;;13.63;;
7541;SDS011;3812;50.006;8.230;2023-02-24T02:33:17;23.43;;;13.87;;
7541;SDS011;3812;50.006;8.230;2023-02-24T02:36:11;26.57;;;14.17;;
7541;SDS011;3812;50.006;8.230;2023-02-24T02:38:44;29.00;;;14.07;;
7541;SDS011;3812;50.006;8.230;2023-02-24T02:41:18;29.07;;;14.77;;
7541;SDS011;3812;50.006;8.230;2023-02-24T02:43:50;29.20;;;15.17;;
7541;SDS011;3812;50.006;8.230;2023-02-24T02:46:24;24.07;;;12.97;;
7541;SDS011;3812;50.006;8.230;2023-02-24T02:49:01;26.37;;;12.37;;
7541;SDS011;3812;50.006;8.230;2023-02-24T02:51:35;23.87;;;13.23;;
7541;SDS011;3812;50.006;8.230;2023-02-24T02:54:08;24.77;;;12.80;;
7541;SDS011;3812;50.006;8.230;2023-02-24T02:56:42;24.47;;;12.17;;
7541;SDS011;3812;50.006;8.230;2023-02-24T02:59:14;24.43;;;12.53;;
7541;SDS011;3812;50.006;8.230;2023-02-24T03:01:47;26.23;;;13.40;;
7541;SDS011;3812;50.006;8.230;2023-02-24T03:04:16;25.10;;;12.47;;
7541;SDS011;3812;50.006;8.230;2023-02-24T03:06:49;22.87;;;12.53;;
7541;SDS011;3812;50.006;8.230;2023-02-24T03:09:21;27.03;;;13.53;;
7541;SDS011;3812;50.006;8.230;2023-02-24T03:11:54;25.23;;;13.10;;
7541;SDS011;3812;50.006;8.230;2023-02-24T03:14:27;26.93;;;14.43;;
7541;SDS011;3812;50.006;8.230;2023-02-24T03:16:59;31.27;;;14.67;;
7541;SDS011;3812;50.006;8.230;2023-02-24T03:19:31;29.90;;;15.47;;
7541;SDS011;3812;50.006;8.230;2023-02-24T03:22:05;30.70;;;15.93;;
7541;SDS011;3812;50.006;8.230;2023-02-24T03:24:37;30.40;;;15.33;;
7541;SDS011;3812;50.006;8.230;2023-02-24T03:27:09;32.90;;;16.53;;
7541;SDS011;3812;50.006;8.230;2023-02-24T03:29:40;32.83;;;16.20;;
7541;SDS011;3812;50.006;8.230;2023-02-24T03:32:14;34.77;;;16.30;;
7541;SDS011;3812;50.006;8.230;2023-02-24T03:34:48;32.37;;;17.60;;
7541;SDS011;3812;50.006;8.230;2023-02-24T03:37:25;34.13;;;15.97;;
7541;SDS011;3812;50.006;8.230;2023-02-24T03:39:57;37.60;;;17.00;;
7541;SDS011;3812;50.006;8.230;2023-02-24T03:42:32;34.43;;;16.57;;
7541;SDS011;3812;50.006;8.230;2023-02-24T03:45:00;34.27;;;17.83;;
7541;SDS011;3812;50.006;8.230;2023-02-24T03:47:30;31.67;;;15.50;;
7541;SDS011;3812;50.006;8.230;2023-02-24T03:49:58;29.73;;;15.27;;
7541;SDS011;3812;50.006;8.230;2023-02-24T03:52:30;35.13;;;17.33;;
7541;SDS011;3812;50.006;8.230;2023-02-24T03:55:06;31.67;;;16.00;;
7541;SDS011;3812;50.006;8.230;2023-02-24T03:57:45;31.17;;;15.40;;
7541;SDS011;3812;50.006;8.230;2023-02-24T04:00:30;31.73;;;15.70;;
7541;SDS011;3812;50.006;8.230;2023-02-24T04:03:05;29.90;;;14.73;;
7541;SDS011;3812;50.006;8.230;2023-02-24T04:05:41;28.97;;;15.73;;
7541;SDS011;3812;50.006;8.230;2023-02-24T04:08:14;33.10;;;16.13;;
7541;SDS011;3812;50.006;8.230;2023-02-24T04:10:45;32.50;;;15.87;;
7541;SDS011;3812;50.006;8.230;2023-02-24T04:13:21;31.97;;;16.80;;
7541;SDS011;3812;50.006;8.230;2023-02-24T04:16:01;30.17;;;15.50;;
7541;SDS011;3812;50.006;8.230;2023-02-24T04:18:34;28.77;;;14.70;;
7541;SDS011;3812;50.006;8.230;2023-02-24T04:21:02;31.80;;;15.73;;
7541;SDS011;3812;50.006;8.230;2023-02-24T04:23:35;29.23;;;14.83;;
7541;SDS011;3812;50.006;8.230;2023-02-24T04:26:05;30.90;;;15.73;;
7541;SDS011;3812;50.006;8.230;2023-02-24T04:28:36;38.93;;;16.20;;
7541;SDS011;3812;50.006;8.230;2023-02-24T04:31:07;32.40;;;15.27;;
7541;SDS011;3812;50.006;8.230;2023-02-24T04:33:41;31.90;;;15.20;;
7541;SDS011;3812;50.006;8.230;2023-02-24T04:36:09;31.13;;;15.27;;
7541;SDS011;3812;50.006;8.230;2023-02-24T04:38:39;30.87;;;14.37;;
7541;SDS011;3812;50.006;8.230;2023-02-24T04:41:07;30.77;;;14.47;;
7541;SDS011;3812;50.006;8.230;2023-02-24T04:43:34;32.63;;;15.77;;
7541;SDS011;3812;50.006;8.230;2023-02-24T04:46:01;30.87;;;15.67;;
7541;SDS011;3812;50.006;8.230;2023-02-24T04:48:31;31.93;;;15.37;;
7541;SDS011;3812;50.006;8.230;2023-02-24T04:50:59;32.33;;;15.63;;
7541;SDS011;3812;50.006;8.230;2023-02-24T04:53:27;30.57;;;15.53;;
7541;SDS011;3812;50.006;8.230;2023-02-24T04:55:55;34.77;;;16.43;;
7541;SDS011;3812;50.006;8.230;2023-02-24T04:58:23;32.67;;;15.70;;
7541;SDS011;3812;50.006;8.230;2023-02-24T05:00:52;32.30;;;15.90;;
7541;SDS011;3812;50.006;8.230;2023-02-24T05:03:21;33.77;;;15.33;;
7541;SDS011;3812;50.006;8.230;2023-02-24T05:05:55;32.30;;;16.57;;
7541;SDS011;3812;50.006;8.230;2023-02-24T05:08:24;38.80;;;17.57;;
7541;SDS011;3812;50.006;8.230;2023-02-24T05:10:52;35.10;;;17.07;;
7541;SDS011;3812;50.006;8.230;2023-02-24T05:13:22;35.10;;;16.33;;
7541;SDS011;3812;50.006;8.230;2023-02-24T05:15:52;36.80;;;16.33;;
7541;SDS011;3812;50.006;8.230;2023-02-24T05:18:20;34.23;;;16.67;;
7541;SDS011;3812;50.006;8.230;2023-02-24T05:20:48;36.67;;;17.20;;
7541;SDS011;3812;50.006;8.230;2023-02-24T05:23:34;38.70;;;17.67;;
7541;SDS011;3812;50.006;8.230;2023-02-24T05:26:04;34.43;;;17.33;;
7541;SDS011;3812;50.006;8.230;2023-02-24T05:28:36;36.83;;;18.33;;
7541;SDS011;3812;50.006;8.230;2023-02-24T05:31:05;34.30;;;16.87;;
7541;SDS011;3812;50.006;8.230;2023-02-24T05:33:33;37.13;;;18.83;;
7541;SDS011;3812;50.006;8.230;2023-02-24T05:36:02;32.23;;;17.33;;
7541;SDS011;3812;50.006;8.230;2023-02-24T05:38:32;33.43;;;18.07;;
7541;SDS011;3812;50.006;8.230;2023-02-24T05:41:05;34.60;;;16.87;;
7541;SDS011;3812;50.006;8.230;2023-02-24T05:43:33;36.43;;;18.63;;
7541;SDS011;3812;50.006;8.230;2023-02-24T05:46:04;36.97;;;18.57;;
7541;SDS011;3812;50.006;8.230;2023-02-24T05:48:31;40.10;;;20.10;;
7541;SDS011;3812;50.006;8.230;2023-02-24T05:50:59;38.87;;;18.87;;
7541;SDS011;3812;50.006;8.230;2023-02-24T05:53:27;36.97;;;18.73;;
7541;SDS011;3812;50.006;8.230;2023-02-24T05:55:54;36.57;;;19.03;;
7541;SDS011;3812;50.006;8.230;2023-02-24T05:58:21;39.57;;;19.57;;
7541;SDS011;3812;50.006;8.230;2023-02-24T06:00:48;37.77;;;19.60;;
7541;SDS011;3812;50.006;8.230;2023-02-24T06:03:17;38.93;;;19.13;;
7541;SDS011;3812;50.006;8.230;2023-02-24T06:05:55;38.67;;;19.03;;
7541;SDS011;3812;50.006;8.230;2023-02-24T06:08:29;39.17;;;18.93;;
7541;SDS011;3812;50.006;8.230;2023-02-24T06:11:06;37.27;;;19.33;;
7541;SDS011;3812;50.006;8.230;2023-02-24T06:13:34;39.47;;;19.63;;
7541;SDS011;3812;50.006;8.230;2023-02-24T06:16:02;40.57;;;19.67;;
7541;SDS011;3812;50.006;8.230;2023-02-24T06:18:31;40.63;;;20.03;;
7541;SDS011;3812;50.006;8.230;2023-02-24T06:21:01;39.60;;;19.13;;
7541;SDS011;3812;50.006;8.230;2023-02-24T06:23:28;41.30;;;19.73;;
7541;SDS011;3812;50.006;8.230;2023-02-24T06:25:55;37.87;;;19.07;;
7541;SDS011;3812;50.006;8.230;2023-02-24T06:28:26;37.57;;;19.23;;
7541;SDS011;3812;50.006;8.230;2023-02-24T06:30:53;39.57;;;20.47;;
7541;SDS011;3812;50.006;8.230;2023-02-24T06:33:21;39.93;;;19.90;;
7541;SDS011;3812;50.006;8.230;2023-02-24T06:35:51;38.37;;;20.27;;
7541;SDS011;3812;50.006;8.230;2023-02-24T06:38:18;40.97;;;19.67;;
7541;SDS011;3812;50.006;8.230;2023-02-24T06:40:45;42.77;;;23.27;;
7541;SDS011;3812;50.006;8.230;2023-02-24T06:43:16;43.10;;;21.40;;
7541;SDS011;3812;50.006;8.230;2023-02-24T06:45:43;44.60;;;20.03;;
7541;SDS011;3812;50.006;8.230;2023-02-24T06:48:10;44.67;;;21.63;;
7541;SDS011;3812;50.006;8.230;2023-02-24T06:50:37;44.47;;;21.03;;
7541;SDS011;3812;50.006;8.230;2023-02-24T06:53:06;44.43;;;20.20;;
7541;SDS011;3812;50.006;8.230;2023-02-24T06:55:41;41.03;;;21.60;;
7541;SDS011;3812;50.006;8.230;2023-02-24T06:58:13;47.50;;;22.30;;
7541;SDS011;3812;50.006;8.230;2023-02-24T07:00:42;45.17;;;20.53;;
7541;SDS011;3812;50.006;8.230;2023-02-24T07:03:21;42.50;;;21.03;;
7541;SDS011;3812;50.006;8.230;2023-02-24T07:05:50;40.80;;;20.60;;
7541;SDS011;3812;50.006;8.230;2023-02-24T07:08:36;43.60;;;23.40;;
7541;SDS011;3812;50.006;8.230;2023-02-24T07:11:03;41.37;;;20.43;;
7541;SDS011;3812;50.006;8.230;2023-02-24T07:13:32;45.83;;;23.63;;
7541;SDS011;3812;50.006;8.230;2023-02-24T07:16:01;38.67;;;19.30;;
7541;SDS011;3812;50.006;8.230;2023-02-24T07:18:31;40.93;;;20.70;;
7541;SDS011;3812;50.006;8.230;2023-02-24T07:21:00;38.17;;;19.70;;
7541;SDS011;3812;50.006;8.230;2023-02-24T07:23:29;33.47;;;18.43;;
7541;SDS011;3812;50.006;8.230;2023-02-24T07:25:58;31.80;;;17.53;;
7541;SDS011;3812;50.006;8.230;2023-02-24T07:28:24;31.97;;;17.43;;
7541;SDS011;3812;50.006;8.230;2023-02-24T07:30:51;33.13;;;17.93;;
7541;SDS011;3812;50.006;8.230;2023-02-24T07:33:19;30.50;;;16.30;;
7541;SDS011;3812;50.006;8.230;2023-02-24T07:35:48;32.13;;;17.23;;
7541;SDS011;3812;50.006;8.230;2023-02-24T07:38:16;30.17;;;16.37;;
7541;SDS011;3812;50.006;8.230;2023-02-24T07:40:47;29.73;;;15.77;;
7541;SDS011;3812;50.006;8.230;2023-02-24T07:43:16;28.30;;;16.13;;
7541;SDS011;3812;50.006;8.230;2023-02-24T07:45:44;29.43;;;16.07;;
7541;SDS011;3812;50.006;8.230;2023-02-24T07:48:12;28.97;;;15.83;;
7541;SDS011;3812;50.006;8.230;2023-02-24T07:50:39;34.43;;;16.73;;
7541;SDS011;3812;50.006;8.230;2023-02-24T07:53:07;30.13;;;16.47;;
7541;SDS011;3812;50.006;8.230;2023-02-24T07:55:34;30.40;;;17.03;;
7541;SDS011;3812;50.006;8.230;2023-02-24T07:58:01;30.10;;;16.37;;
7541;SDS011;3812;50.006;8.230;2023-02-24T08:00:31;29.77;;;17.10;;
7541;SDS011;3812;50.006;8.230;2023-02-24T08:03:14;29.87;;;16.13;;
7541;SDS011;3812;50.006;8.230;2023-02-24T08:05:41;30.80;;;17.23;;
7541;SDS011;3812;50.006;8.230;2023-02-24T08:08:08;34.07;;;16.47;;
7541;SDS011;3812;50.006;8.230;2023-02-24T08:10:39;30.97;;;16.93;;
7541;SDS011;3812;50.006;8.230;2023-02-24T08:13:06;25.83;;;14.90;;
7541;SDS011;3812;50.006;8.230;2023-02-24T08:15:37;31.93;;;16.83;;
7541;SDS011;3812;50.006;8.230;2023-02-24T08:18:04;28.27;;;15.97;;
7541;SDS011;3812;50.006;8.230;2023-02-24T08:20:31;29.60;;;16.07;;
7541;SDS011;3812;50.006;8.230;2023-02-24T08:23:16;31.43;;;15.47;;
7541;SDS011;3812;50.006;8.230;2023-02-24T08:25:43;30.50;;;14.90;;
7541;SDS011;3812;50.006;8.230;2023-02-24T08:28:10;30.27;;;15.60;;
7541;SDS011;3812;50.006;8.230;2023-02-24T08:30:40;26.63;;;15.60;;
7541;SDS011;3812;50.006;8.230;2023-02-24T08:33:10;26.47;;;14.27;;
7541;SDS011;3812;50.006;8.230;2023-02-24T08:35:41;25.97;;;14.80;;
7541;SDS011;3812;50.006;8.230;2023-02-24T08:38:10;26.53;;;14.80;;
7541;SDS011;3812;50.006;8.230;2023-02-24T08:40:40;30.47;;;16.27;;
7541;SDS011;3812;50.006;8.230;2023-02-24T08:43:17;27.67;;;15.90;;
7541;SDS011;3812;50.006;8.230;2023-02-24T08:45:57;27.27;;;15.93;;
7541;SDS011;3812;50.006;8.230;2023-02-24T08:48:28;26.33;;;15.07;;
7541;SDS011;3812;50.006;8.230;2023-02-24T08:51:04;28.23;;;14.53;;
7541;SDS011;3812;50.006;8.230;2023-02-24T08:53:33;28.27;;;15.10;;
7541;SDS011;3812;50.006;8.230;2023-02-24T08:56:05;28.90;;;16.27;;
7541;SDS011;3812;50.006;8.230;2023-02-24T08:58:37;24.33;;;15.67;;
7541;SDS011;3812;50.006;8.230;2023-02-24T09:01:13;29.60;;;15.50;;
7541;SDS011;3812;50.006;8.230;2023-02-24T09:03:48;25.77;;;14.53;;
7541;SDS011;3812;50.006;8.230;2023-02-24T09:06:17;29.60;;;15.23;;
7541;SDS011;3812;50.006;8.230;2023-02-24T09:08:50;29.47;;;15.87;;
7541;SDS011;3812;50.006;8.230;2023-02-24T09:11:38;25.73;;;14.80;;
7541;SDS011;3812;50.006;8.230;2023-02-24T09:14:08;31.30;;;16.90;;
7541;SDS011;3812;50.006;8.230;2023-02-24T09:16:42;31.37;;;16.97;;
7541;SDS011;3812;50.006;8.230;2023-02-24T09:19:27;30.67;;;16.43;;
7541;SDS011;3812;50.006;8.230;2023-02-24T09:22:12;30.57;;;18.47;;
7541;SDS011;3812;50.006;8.230;2023-02-24T09:24:55;32.93;;;17.37;;
7541;SDS011;3812;50.006;8.230;2023-02-24T09:27:42;33.17;;;16.97;;
7541;SDS011;3812;50.006;8.230;2023-02-24T09:30:12;36.10;;;17.97;;
7541;SDS011;3812;50.006;8.230;2023-02-24T09:33:03;33.63;;;17.77;;
7541;SDS011;3812;50.006;8.230;2023-02-24T09:35:32;31.73;;;17.60;;
7541;SDS011;3812;50.006;8.230;2023-02-24T09:38:01;31.83;;;17.27;;
7541;SDS011;3812;50.006;8.230;2023-02-24T09:40:31;27.63;;;16.53;;
7541;SDS011;3812;50.006;8.230;2023-02-24T09:43:13;28.37;;;16.13;;
7541;SDS011;3812;50.006;8.230;2023-02-24T09:45:45;28.30;;;15.00;;
7541;SDS011;3812;50.006;8.230;2023-02-24T09:48:21;23.67;;;14.47;;
7541;SDS011;3812;50.006;8.230;2023-02-24T09:50:56;24.33;;;13.63;;
7541;SDS011;3812;50.006;8.230;2023-02-24T09:53:30;27.17;;;13.43;;
7541;SDS011;3812;50.006;8.230;2023-02-24T09:56:06;19.53;;;12.27;;
7541;SDS011;3812;50.006;8.230;2023-02-24T09:58:41;23.43;;;14.13;;
7541;SDS011;3812;50.006;8.230;2023-02-24T10:01:17;24.43;;;14.27;;
7541;SDS011;3812;50.006;8.230;2023-02-24T10:04:00;25.83;;;14.40;;
7541;SDS011;3812;50.006;8.230;2023-02-24T10:06:38;24.20;;;14.33;;
7541;SDS011;3812;50.006;8.230;2023-02-24T10:09:09;26.03;;;14.83;;
7541;SDS011;3812;50.006;8.230;2023-02-24T10:11:46;19.70;;;11.97;;
7541;SDS011;3812;50.006;8.230;2023-02-24T10:14:19;21.97;;;11.97;;
7541;SDS011;3812;50.006;8.230;2023-02-24T10:16:53;18.63;;;11.47;;
7541;SDS011;3812;50.006;8.230;2023-02-24T10:19:36;22.93;;;12.93;;
7541;SDS011;3812;50.006;8.230;2023-02-24T10:22:06;16.93;;;10.30;;
7541;SDS011;3812;50.006;8.230;2023-02-24T10:24:53;20.53;;;11.80;;
7541;SDS011;3812;50.006;8.230;2023-02-24T10:27:36;21.37;;;12.23;;
7541;SDS011;3812;50.006;8.230;2023-02-24T10:30:23;19.87;;;12.40;;
7541;SDS011;3812;50.006;8.230;2023-02-24T10:33:09;20.33;;;11.33;;
7541;SDS011;3812;50.006;8.230;2023-02-24T10:35:51;16.37;;;10.60;;
7541;SDS011;3812;50.006;8.230;2023-02-24T10:38:33;16.10;;;10.23;;
7541;SDS011;3812;50.006;8.230;2023-02-24T10:41:01;18.83;;;10.67;;
7541;SDS011;3812;50.006;8.230;2023-02-24T10:43:30;17.00;;;10.13;;
7541;SDS011;3812;50.006;8.230;2023-02-24T10:46:17;20.93;;;11.07;;
7541;SDS011;3812;50.006;8.230;2023-02-24T10:48:50;20.33;;;12.03;;
7541;SDS011;3812;50.006;8.230;2023-02-24T10:51:27;21.80;;;12.10;;
7541;SDS011;3812;50.006;8.230;2023-02-24T10:54:08;17.97;;;10.70;;
7541;SDS011;3812;50.006;8.230;2023-02-24T10:56:55;17.33;;;10.30;;
7541;SDS011;3812;50.006;8.230;2023-02-24T10:59:41;20.00;;;11.30;;
7541;SDS011;3812;50.006;8.230;2023-02-24T11:02:45;17.97;;;10.40;;
7541;SDS011;3812;50.006;8.230;2023-02-24T11:05:34;18.40;;;10.83;;
7541;SDS011;3812;50.006;8.230;2023-02-24T11:08:31;18.60;;;11.53;;
7541;SDS011;3812;50.006;8.230;2023-02-24T11:11:20;17.47;;;9.77;;
7541;SDS011;3812;50.006;8.230;2023-02-24T11:13:54;17.47;;;10.40;;
7541;SDS011;3812;50.006;8.230;2023-02-24T11:16:40;20.57;;;11.13;;
7541;SDS011;3812;50.006;8.230;2023-02-24T11:19:27;16.30;;;9.20;;
7541;SDS011;3812;50.006;8.230;2023-02-24T11:21:55;14.57;;;9.23;;
7541;SDS011;3812;50.006;8.230;2023-02-24T11:24:25;18.07;;;10.20;;
7541;SDS011;3812;50.006;8.230;2023-02-24T11:26:54;16.60;;;10.77;;
7541;SDS011;3812;50.006;8.230;2023-02-24T11:29:25;16.87;;;10.30;;
7541;SDS011;3812;50.006;8.230;2023-02-24T11:32:14;21.73;;;10.50;;
7541;SDS011;3812;50.006;8.230;2023-02-24T11:34:51;20.20;;;11.17;;
7541;SDS011;3812;50.006;8.230;2023-02-24T11:37:29;19.77;;;12.00;;
7541;SDS011;3812;50.006;8.230;2023-02-24T11:40:04;15.23;;;9.73;;
7541;SDS011;3812;50.006;8.230;2023-02-24T11:42:38;14.63;;;9.17;;
7541;SDS011;3812;50.006;8.230;2023-02-24T11:45:24;21.60;;;11.00;;
7541;SDS011;3812;50.006;8.230;2023-02-24T11:47:56;15.37;;;8.87;;
7541;SDS011;3812;50.006;8.230;2023-02-24T11:50:29;16.87;;;9.80;;
7541;SDS011;3812;50.006;8.230;2023-02-24T11:53:04;19.00;;;9.70;;
7541;SDS011;3812;50.006;8.230;2023-02-24T11:55:43;14.30;;;9.30;;
7541;SDS011;3812;50.006;8.230;2023-02-24T11:58:15;15.80;;;8.73;;
7541;SDS011;3812;50.006;8.230;2023-02-24T12:00:49;12.50;;;7.80;;
7541;SDS011;3812;50.006;8.230;2023-02-24T12:03:22;12.40;;;7.87;;
7541;SDS011;3812;50.006;8.230;2023-02-24T12:05:54;11.00;;;7.27;;
7541;SDS011;3812;50.006;8.230;2023-02-24T12:08:27;10.87;;;6.87;;
7541;SDS011;3812;50.006;8.230;2023-02-24T12:11:00;9.67;;;6.70;;
7541;SDS011;3812;50.006;8.230;2023-02-24T12:13:35;10.83;;;6.10;;
7541;SDS011;3812;50.006;8.230;2023-02-24T12:16:09;9.13;;;5.83;;
7541;SDS011;3812;50.006;8.230;2023-02-24T12:18:41;10.57;;;6.00;;
7541;SDS011;3812;50.006;8.230;2023-02-24T12:21:13;10.73;;;5.57;;
7541;SDS011;3812;50.006;8.230;2023-02-24T12:23:44;10.70;;;6.43;;
7541;SDS011;3812;50.006;8.230;2023-02-24T12:26:18;9.87;;;6.20;;
7541;SDS011;3812;50.006;8.230;2023-02-24T12:28:54;11.73;;;6.23;;
7541;SDS011;3812;50.006;8.230;2023-02-24T12:31:35;10.20;;;6.23;;
7541;SDS011;3812;50.006;8.230;2023-02-24T12:34:10;9.43;;;5.93;;
7541;SDS011;3812;50.006;8.230;2023-02-24T12:36:44;7.67;;;5.60;;
7541;SDS011;3812;50.006;8.230;2023-02-24T12:39:33;8.63;;;6.00;;
7541;SDS011;3812;50.006;8.230;2023-02-24T12:42:13;8.53;;;5.80;;
7541;SDS011;3812;50.006;8.230;2023-02-24T12:44:48;9.43;;;6.13;;
7541;SDS011;3812;50.006;8.230;2023-02-24T12:47:24;8.73;;;5.83;;
7541;SDS011;3812;50.006;8.230;2023-02-24T12:50:02;10.07;;;6.27;;
7541;SDS011;3812;50.006;8.230;2023-02-24T12:52:39;9.33;;;5.87;;
7541;SDS011;3812;50.006;8.230;2023-02-24T12:55:17;9.03;;;6.00;;
7541;SDS011;3812;50.006;8.230;2023-02-24T12:57:51;9.93;;;5.50;;
7541;SDS011;3812;50.006;8.230;2023-02-24T13:00:28;7.87;;;5.77;;
7541;SDS011;3812;50.006;8.230;2023-02-24T13:03:04;9.03;;;5.87;;
7541;SDS011;3812;50.006;8.230;2023-02-24T13:05:44;8.40;;;5.70;;
7541;SDS011;3812;50.006;8.230;2023-02-24T13:08:20;7.30;;;5.00;;
7541;SDS011;3812;50.006;8.230;2023-02-24T13:10:56;7.73;;;5.13;;
7541;SDS011;3812;50.006;8.230;2023-02-24T13:13:33;7.23;;;4.77;;
7541;SDS011;3812;50.006;8.230;2023-02-24T13:16:05;7.33;;;5.33;;
7541;SDS011;3812;50.006;8.230;2023-02-24T13:18:33;7.53;;;4.87;;
7541;SDS011;3812;50.006;8.230;2023-02-24T13:21:04;7.70;;;5.00;;
7541;SDS011;3812;50.006;8.230;2023-02-24T13:23:34;8.40;;;5.70;;
7541;SDS011;3812;50.006;8.230;2023-02-24T13:26:02;10.70;;;5.87;;
7541;SDS011;3812;50.006;8.230;2023-02-24T13:28:30;8.50;;;5.20;;
7541;SDS011;3812;50.006;8.230;2023-02-24T13:31:01;8.37;;;5.27;;
7541;SDS011;3812;50.006;8.230;2023-02-24T13:33:30;8.50;;;5.77;;
7541;SDS011;3812;50.006;8.230;2023-02-24T13:36:12;10.03;;;5.50;;
7541;SDS011;3812;50.006;8.230;2023-02-24T13:38:41;7.67;;;5.47;;
7541;SDS011;3812;50.006;8.230;2023-02-24T13:41:20;9.00;;;5.17;;
7541;SDS011;3812;50.006;8.230;2023-02-24T13:43:54;10.63;;;6.30;;
7541;SDS011;3812;50.006;8.230;2023-02-24T13:46:23;10.77;;;6.77;;
7541;SDS011;3812;50.006;8.230;2023-02-24T13:49:03;12.27;;;7.10;;
7541;SDS011;3812;50.006;8.230;2023-02-24T13:51:59;10.73;;;6.73;;
7541;SDS011;3812;50.006;8.230;2023-02-24T13:54:40;12.50;;;7.87;;
7541;SDS011;3812;50.006;8.230;2023-02-24T13:57:31;10.43;;;7.33;;
7541;SDS011;3812;50.006;8.230;2023-02-24T14:00:22;13.03;;;7.83;;
7541;SDS011;3812;50.006;8.230;2023-02-24T14:02:56;12.53;;;7.43;;
7541;SDS011;3812;50.006;8.230;2023-02-24T14:05:25;14.47;;;7.97;;
7541;SDS011;3812;50.006;8.230;2023-02-24T14:07:55;14.93;;;8.53;;
7541;SDS011;3812;50.006;8.230;2023-02-24T14:10:23;14.90;;;8.60;;
7541;SDS011;3812;50.006;8.230;2023-02-24T14:12:57;13.33;;;7.63;;
7541;SDS011;3812;50.006;8.230;2023-02-24T14:15:30;14.43;;;7.37;;
7541;SDS011;3812;50.006;8.230;2023-02-24T14:17:59;12.97;;;7.53;;
7541;SDS011;3812;50.006;8.230;2023-02-24T14:20:29;11.53;;;6.57;;
7541;SDS011;3812;50.006;8.230;2023-02-24T14:22:57;13.47;;;7.40;;
7541;SDS011;3812;50.006;8.230;2023-02-24T14:25:25;11.27;;;7.10;;
7541;SDS011;3812;50.006;8.230;2023-02-24T14:27:55;12.37;;;7.47;;
7541;SDS011;3812;50.006;8.230;2023-02-24T14:30:23;12.27;;;6.67;;
7541;SDS011;3812;50.006;8.230;2023-02-24T14:32:56;11.57;;;6.13;;
7541;SDS011;3812;50.006;8.230;2023-02-24T14:35:26;9.67;;;5.70;;
7541;SDS011;3812;50.006;8.230;2023-02-24T14:37:56;9.87;;;6.10;;
7541;SDS011;3812;50.006;8.230;2023-02-24T14:40:23;9.63;;;5.77;;
7541;SDS011;3812;50.006;8.230;2023-02-24T14:42:53;9.20;;;5.30;;
7541;SDS011;3812;50.006;8.230;2023-02-24T14:45:22;11.17;;;5.13;;
7541;SDS011;3812;50.006;8.230;2023-02-24T14:47:51;9.33;;;5.27;;
7541;SDS011;3812;50.006;8.230;2023-02-24T14:50:23;8.00;;;5.67;;
7541;SDS011;3812;50.006;8.230;2023-02-24T14:52:54;8.80;;;4.90;;
7541;SDS011;3812;50.006;8.230;2023-02-24T14:55:24;7.37;;;5.20;;
7541;SDS011;3812;50.006;8.230;2023-02-24T14:57:56;9.27;;;5.30;;
7541;SDS011;3812;50.006;8.230;2023-02-24T15:00:27;7.30;;;4.63;;
7541;SDS011;3812;50.006;8.230;2023-02-24T15:03:01;7.83;;;4.97;;
7541;SDS011;3812;50.006;8.230;2023-02-24T15:05:39;7.83;;;4.80;;
7541;SDS011;3812;50.006;8.230;2023-02-24T15:08:12;5.83;;;4.47;;
7541;SDS011;3812;50.006;8.230;2023-02-24T15:10:46;6.67;;;3.97;;
7541;SDS011;3812;50.006;8.230;2023-02-24T15:13:14;8.60;;;4.33;;
7541;SDS011;3812;50.006;8.230;2023-02-24T15:15:52;7.37;;;3.90;;
7541;SDS011;3812;50.006;8.230;2023-02-24T15:18:23;6.23;;;3.90;;
7541;SDS011;3812;50.006;8.230;2023-02-24T15:21:00;7.23;;;4.17;;
7541;SDS011;3812;50.006;8.230;2023-02-24T15:23:30;6.97;;;3.50;;
7541;SDS011;3812;50.006;8.230;2023-02-24T15:25:58;6.40;;;3.90;;
7541;SDS011;3812;50.006;8.230;2023-02-24T15:28:26;6.27;;;3.63;;
7541;SDS011;3812;50.006;8.230;2023-02-24T15:31:00;5.60;;;3.60;;